<?xml version="1.0" encoding="UTF-8" standalone="no" ?>
<gpx xmlns="http://www.topografix.com/GPX/1/1" xmlns:xsi="http://www.w3.org/2001/XMLSchema-instance" xsi:schemaLocation="http://www.topografix.com/GPX/1/1 http://www.topografix.com/GPX/1/1/gpx.xsd" version="1.1" creator="VisuGPX - https://www.visugpx.com">
  <metadata>
    <name>Vacances 2021</name>
  </metadata>
  <trk>
    <name><![CDATA[Journal actif: 2021-07-23 17:15]]></name>
    <trkseg>
      <trkpt lat="49.18401" lon="5.37049">
        <ele>221.24</ele>
        <time>2021-07-23T19:15:11Z</time>
      </trkpt>
      <trkpt lat="49.18401" lon="5.37049">
        <ele>221.72</ele>
        <time>2021-07-23T19:15:28Z</time>
      </trkpt>
      <trkpt lat="49.18382" lon="5.37037">
        <ele>222.68</ele>
        <time>2021-07-23T19:15:50Z</time>
      </trkpt>
      <trkpt lat="49.18317" lon="5.36997">
        <ele>225.57</ele>
        <time>2021-07-23T19:16:01Z</time>
      </trkpt>
      <trkpt lat="49.18313" lon="5.36995">
        <ele>225.57</ele>
        <time>2021-07-23T19:16:02Z</time>
      </trkpt>
      <trkpt lat="49.18309" lon="5.36993">
        <ele>225.57</ele>
        <time>2021-07-23T19:16:03Z</time>
      </trkpt>
      <trkpt lat="49.18302" lon="5.36969">
        <ele>226.05</ele>
        <time>2021-07-23T19:16:08Z</time>
      </trkpt>
      <trkpt lat="49.18296" lon="5.36964">
        <ele>226.05</ele>
        <time>2021-07-23T19:16:09Z</time>
      </trkpt>
      <trkpt lat="49.18292" lon="5.36965">
        <ele>226.53</ele>
        <time>2021-07-23T19:16:10Z</time>
      </trkpt>
      <trkpt lat="49.18287" lon="5.36965">
        <ele>226.53</ele>
        <time>2021-07-23T19:16:11Z</time>
      </trkpt>
      <trkpt lat="49.18287" lon="5.36965">
        <ele>226.53</ele>
        <time>2021-07-23T19:16:12Z</time>
      </trkpt>
      <trkpt lat="49.18272" lon="5.36972">
        <ele>227.01</ele>
        <time>2021-07-23T19:16:13Z</time>
      </trkpt>
      <trkpt lat="49.18257" lon="5.36965">
        <ele>227.01</ele>
        <time>2021-07-23T19:16:14Z</time>
      </trkpt>
      <trkpt lat="49.18146" lon="5.3691">
        <ele>231.81</ele>
        <time>2021-07-23T19:16:26Z</time>
      </trkpt>
      <trkpt lat="49.1804" lon="5.36899">
        <ele>225.57</ele>
        <time>2021-07-23T19:16:35Z</time>
      </trkpt>
      <trkpt lat="49.17968" lon="5.36929">
        <ele>222.2</ele>
        <time>2021-07-23T19:16:42Z</time>
      </trkpt>
      <trkpt lat="49.17968" lon="5.36929">
        <ele>222.2</ele>
        <time>2021-07-23T19:16:43Z</time>
      </trkpt>
      <trkpt lat="49.17951" lon="5.36924">
        <ele>221.72</ele>
        <time>2021-07-23T19:16:45Z</time>
      </trkpt>
      <trkpt lat="49.17951" lon="5.36924">
        <ele>221.24</ele>
        <time>2021-07-23T19:16:46Z</time>
      </trkpt>
      <trkpt lat="49.1795" lon="5.36925">
        <ele>221.24</ele>
        <time>2021-07-23T19:16:47Z</time>
      </trkpt>
      <trkpt lat="49.17941" lon="5.36947">
        <ele>220.28</ele>
        <time>2021-07-23T19:16:49Z</time>
      </trkpt>
      <trkpt lat="49.17936" lon="5.36952">
        <ele>220.28</ele>
        <time>2021-07-23T19:16:50Z</time>
      </trkpt>
      <trkpt lat="49.1787" lon="5.37026">
        <ele>216.91</ele>
        <time>2021-07-23T19:16:59Z</time>
      </trkpt>
      <trkpt lat="49.17804" lon="5.37185">
        <ele>214.03</ele>
        <time>2021-07-23T19:17:10Z</time>
      </trkpt>
      <trkpt lat="49.17758" lon="5.37445">
        <ele>208.26</ele>
        <time>2021-07-23T19:17:25Z</time>
      </trkpt>
      <trkpt lat="49.1769" lon="5.37838">
        <ele>198.17</ele>
        <time>2021-07-23T19:17:47Z</time>
      </trkpt>
      <trkpt lat="49.17675" lon="5.37904">
        <ele>195.77</ele>
        <time>2021-07-23T19:17:52Z</time>
      </trkpt>
      <trkpt lat="49.17671" lon="5.37917">
        <ele>195.28</ele>
        <time>2021-07-23T19:17:53Z</time>
      </trkpt>
      <trkpt lat="49.17665" lon="5.37926">
        <ele>194.8</ele>
        <time>2021-07-23T19:17:54Z</time>
      </trkpt>
      <trkpt lat="49.17659" lon="5.37936">
        <ele>194.32</ele>
        <time>2021-07-23T19:17:55Z</time>
      </trkpt>
      <trkpt lat="49.17652" lon="5.37946">
        <ele>193.84</ele>
        <time>2021-07-23T19:17:56Z</time>
      </trkpt>
      <trkpt lat="49.17636" lon="5.37958">
        <ele>192.88</ele>
        <time>2021-07-23T19:17:57Z</time>
      </trkpt>
      <trkpt lat="49.17627" lon="5.37963">
        <ele>192.4</ele>
        <time>2021-07-23T19:17:58Z</time>
      </trkpt>
      <trkpt lat="49.17619" lon="5.37968">
        <ele>192.4</ele>
        <time>2021-07-23T19:17:59Z</time>
      </trkpt>
      <trkpt lat="49.17538" lon="5.38008">
        <ele>191.44</ele>
        <time>2021-07-23T19:18:12Z</time>
      </trkpt>
      <trkpt lat="49.17451" lon="5.38066">
        <ele>191.92</ele>
        <time>2021-07-23T19:18:24Z</time>
      </trkpt>
      <trkpt lat="49.1731" lon="5.38203">
        <ele>190.96</ele>
        <time>2021-07-23T19:18:42Z</time>
      </trkpt>
      <trkpt lat="49.17216" lon="5.38305">
        <ele>193.84</ele>
        <time>2021-07-23T19:18:54Z</time>
      </trkpt>
      <trkpt lat="49.17172" lon="5.3836">
        <ele>193.36</ele>
        <time>2021-07-23T19:19:03Z</time>
      </trkpt>
      <trkpt lat="49.17105" lon="5.38452">
        <ele>193.84</ele>
        <time>2021-07-23T19:19:14Z</time>
      </trkpt>
      <trkpt lat="49.17085" lon="5.38476">
        <ele>193.36</ele>
        <time>2021-07-23T19:19:19Z</time>
      </trkpt>
      <trkpt lat="49.17081" lon="5.38479">
        <ele>193.36</ele>
        <time>2021-07-23T19:19:22Z</time>
      </trkpt>
      <trkpt lat="49.17034" lon="5.38521">
        <ele>193.84</ele>
        <time>2021-07-23T19:19:31Z</time>
      </trkpt>
      <trkpt lat="49.16934" lon="5.38607">
        <ele>192.88</ele>
        <time>2021-07-23T19:19:44Z</time>
      </trkpt>
      <trkpt lat="49.16854" lon="5.38646">
        <ele>195.28</ele>
        <time>2021-07-23T19:19:53Z</time>
      </trkpt>
      <trkpt lat="49.16813" lon="5.3866">
        <ele>195.77</ele>
        <time>2021-07-23T19:20:04Z</time>
      </trkpt>
      <trkpt lat="49.16795" lon="5.38669">
        <ele>196.25</ele>
        <time>2021-07-23T19:20:14Z</time>
      </trkpt>
      <trkpt lat="49.16779" lon="5.38678">
        <ele>197.21</ele>
        <time>2021-07-23T19:20:22Z</time>
      </trkpt>
      <trkpt lat="49.16775" lon="5.38679">
        <ele>197.69</ele>
        <time>2021-07-23T19:20:23Z</time>
      </trkpt>
      <trkpt lat="49.16766" lon="5.38674">
        <ele>197.69</ele>
        <time>2021-07-23T19:20:24Z</time>
      </trkpt>
      <trkpt lat="49.16764" lon="5.38671">
        <ele>197.69</ele>
        <time>2021-07-23T19:20:25Z</time>
      </trkpt>
      <trkpt lat="49.16762" lon="5.38662">
        <ele>197.69</ele>
        <time>2021-07-23T19:20:26Z</time>
      </trkpt>
      <trkpt lat="49.16761" lon="5.38656">
        <ele>198.17</ele>
        <time>2021-07-23T19:20:27Z</time>
      </trkpt>
      <trkpt lat="49.16759" lon="5.38648">
        <ele>198.17</ele>
        <time>2021-07-23T19:20:28Z</time>
      </trkpt>
      <trkpt lat="49.16745" lon="5.38532">
        <ele>197.21</ele>
        <time>2021-07-23T19:20:41Z</time>
      </trkpt>
      <trkpt lat="49.16744" lon="5.38522">
        <ele>197.21</ele>
        <time>2021-07-23T19:20:42Z</time>
      </trkpt>
      <trkpt lat="49.16746" lon="5.38509">
        <ele>196.73</ele>
        <time>2021-07-23T19:20:43Z</time>
      </trkpt>
      <trkpt lat="49.16746" lon="5.38509">
        <ele>196.73</ele>
        <time>2021-07-23T19:20:44Z</time>
      </trkpt>
      <trkpt lat="49.16749" lon="5.38508">
        <ele>196.73</ele>
        <time>2021-07-23T19:20:45Z</time>
      </trkpt>
      <trkpt lat="49.16757" lon="5.38492">
        <ele>196.73</ele>
        <time>2021-07-23T19:20:46Z</time>
      </trkpt>
      <trkpt lat="49.16757" lon="5.38492">
        <ele>196.73</ele>
        <time>2021-07-23T19:20:47Z</time>
      </trkpt>
      <trkpt lat="49.16755" lon="5.38482">
        <ele>196.73</ele>
        <time>2021-07-23T19:20:48Z</time>
      </trkpt>
      <trkpt lat="49.16755" lon="5.38478">
        <ele>196.73</ele>
        <time>2021-07-23T19:20:49Z</time>
      </trkpt>
      <trkpt lat="49.16754" lon="5.38476">
        <ele>196.73</ele>
        <time>2021-07-23T19:20:51Z</time>
      </trkpt>
      <trkpt lat="49.16753" lon="5.38473">
        <ele>196.73</ele>
        <time>2021-07-23T19:20:52Z</time>
      </trkpt>
      <trkpt lat="49.16748" lon="5.38472">
        <ele>196.73</ele>
        <time>2021-07-23T19:20:53Z</time>
      </trkpt>
      <trkpt lat="49.16734" lon="5.38472">
        <ele>196.73</ele>
        <time>2021-07-23T19:20:57Z</time>
      </trkpt>
      <trkpt lat="49.16732" lon="5.38468">
        <ele>196.73</ele>
        <time>2021-07-23T19:20:58Z</time>
      </trkpt>
      <trkpt lat="49.16683" lon="5.38389">
        <ele>194.8</ele>
        <time>2021-07-23T19:21:09Z</time>
      </trkpt>
      <trkpt lat="49.16557" lon="5.38199">
        <ele>196.73</ele>
        <time>2021-07-23T19:21:30Z</time>
      </trkpt>
      <trkpt lat="49.16532" lon="5.38158">
        <ele>197.21</ele>
        <time>2021-07-23T19:21:38Z</time>
      </trkpt>
      <trkpt lat="49.16512" lon="5.38142">
        <ele>197.69</ele>
        <time>2021-07-23T19:21:42Z</time>
      </trkpt>
      <trkpt lat="49.16509" lon="5.38133">
        <ele>197.69</ele>
        <time>2021-07-23T19:21:43Z</time>
      </trkpt>
      <trkpt lat="49.16506" lon="5.38124">
        <ele>197.69</ele>
        <time>2021-07-23T19:21:44Z</time>
      </trkpt>
      <trkpt lat="49.16452" lon="5.37993">
        <ele>199.13</ele>
        <time>2021-07-23T19:21:57Z</time>
      </trkpt>
      <trkpt lat="49.16383" lon="5.37877">
        <ele>200.09</ele>
        <time>2021-07-23T19:22:09Z</time>
      </trkpt>
      <trkpt lat="49.16302" lon="5.37707">
        <ele>200.57</ele>
        <time>2021-07-23T19:22:22Z</time>
      </trkpt>
      <trkpt lat="49.16291" lon="5.37635">
        <ele>200.57</ele>
        <time>2021-07-23T19:22:27Z</time>
      </trkpt>
      <trkpt lat="49.1629" lon="5.37626">
        <ele>201.05</ele>
        <time>2021-07-23T19:22:28Z</time>
      </trkpt>
      <trkpt lat="49.16289" lon="5.37617">
        <ele>201.53</ele>
        <time>2021-07-23T19:22:29Z</time>
      </trkpt>
      <trkpt lat="49.16288" lon="5.37609">
        <ele>201.53</ele>
        <time>2021-07-23T19:22:30Z</time>
      </trkpt>
      <trkpt lat="49.16296" lon="5.37594">
        <ele>202.01</ele>
        <time>2021-07-23T19:22:31Z</time>
      </trkpt>
      <trkpt lat="49.16295" lon="5.3759">
        <ele>202.01</ele>
        <time>2021-07-23T19:22:32Z</time>
      </trkpt>
      <trkpt lat="49.16294" lon="5.37583">
        <ele>202.01</ele>
        <time>2021-07-23T19:22:33Z</time>
      </trkpt>
      <trkpt lat="49.16285" lon="5.37574">
        <ele>202.01</ele>
        <time>2021-07-23T19:22:34Z</time>
      </trkpt>
      <trkpt lat="49.16279" lon="5.37551">
        <ele>202.01</ele>
        <time>2021-07-23T19:22:35Z</time>
      </trkpt>
      <trkpt lat="49.16279" lon="5.37537">
        <ele>202.01</ele>
        <time>2021-07-23T19:22:36Z</time>
      </trkpt>
      <trkpt lat="49.16279" lon="5.37524">
        <ele>202.49</ele>
        <time>2021-07-23T19:22:37Z</time>
      </trkpt>
      <trkpt lat="49.16279" lon="5.37524">
        <ele>202.49</ele>
        <time>2021-07-23T19:22:38Z</time>
      </trkpt>
      <trkpt lat="49.1628" lon="5.37511">
        <ele>202.49</ele>
        <time>2021-07-23T19:22:39Z</time>
      </trkpt>
      <trkpt lat="49.16284" lon="5.37499">
        <ele>202.98</ele>
        <time>2021-07-23T19:22:40Z</time>
      </trkpt>
      <trkpt lat="49.16289" lon="5.37487">
        <ele>202.01</ele>
        <time>2021-07-23T19:22:41Z</time>
      </trkpt>
      <trkpt lat="49.16294" lon="5.37474">
        <ele>202.01</ele>
        <time>2021-07-23T19:22:42Z</time>
      </trkpt>
      <trkpt lat="49.163" lon="5.37466">
        <ele>202.98</ele>
        <time>2021-07-23T19:22:43Z</time>
      </trkpt>
      <trkpt lat="49.1631" lon="5.37461">
        <ele>204.42</ele>
        <time>2021-07-23T19:22:44Z</time>
      </trkpt>
      <trkpt lat="49.1632" lon="5.37457">
        <ele>204.9</ele>
        <time>2021-07-23T19:22:45Z</time>
      </trkpt>
      <trkpt lat="49.1633" lon="5.37457">
        <ele>204.9</ele>
        <time>2021-07-23T19:22:46Z</time>
      </trkpt>
      <trkpt lat="49.16417" lon="5.37449">
        <ele>203.94</ele>
        <time>2021-07-23T19:22:54Z</time>
      </trkpt>
      <trkpt lat="49.16424" lon="5.3744">
        <ele>203.94</ele>
        <time>2021-07-23T19:22:55Z</time>
      </trkpt>
      <trkpt lat="49.16424" lon="5.3744">
        <ele>203.46</ele>
        <time>2021-07-23T19:22:56Z</time>
      </trkpt>
      <trkpt lat="49.16438" lon="5.37424">
        <ele>203.46</ele>
        <time>2021-07-23T19:22:57Z</time>
      </trkpt>
      <trkpt lat="49.16438" lon="5.37424">
        <ele>202.98</ele>
        <time>2021-07-23T19:22:58Z</time>
      </trkpt>
      <trkpt lat="49.16439" lon="5.3741">
        <ele>201.05</ele>
        <time>2021-07-23T19:22:59Z</time>
      </trkpt>
      <trkpt lat="49.16441" lon="5.37394">
        <ele>199.13</ele>
        <time>2021-07-23T19:23:00Z</time>
      </trkpt>
      <trkpt lat="49.16439" lon="5.37363">
        <ele>199.61</ele>
        <time>2021-07-23T19:23:01Z</time>
      </trkpt>
      <trkpt lat="49.16439" lon="5.37363">
        <ele>199.61</ele>
        <time>2021-07-23T19:23:02Z</time>
      </trkpt>
      <trkpt lat="49.16436" lon="5.37346">
        <ele>198.65</ele>
        <time>2021-07-23T19:23:03Z</time>
      </trkpt>
      <trkpt lat="49.16418" lon="5.3728">
        <ele>197.69</ele>
        <time>2021-07-23T19:23:06Z</time>
      </trkpt>
      <trkpt lat="49.1638" lon="5.37183">
        <ele>197.69</ele>
        <time>2021-07-23T19:23:14Z</time>
      </trkpt>
      <trkpt lat="49.16379" lon="5.37175">
        <ele>197.69</ele>
        <time>2021-07-23T19:23:15Z</time>
      </trkpt>
      <trkpt lat="49.16377" lon="5.37167">
        <ele>197.69</ele>
        <time>2021-07-23T19:23:16Z</time>
      </trkpt>
      <trkpt lat="49.16376" lon="5.3716">
        <ele>197.69</ele>
        <time>2021-07-23T19:23:17Z</time>
      </trkpt>
      <trkpt lat="49.16379" lon="5.37151">
        <ele>197.69</ele>
        <time>2021-07-23T19:23:18Z</time>
      </trkpt>
      <trkpt lat="49.16383" lon="5.37146">
        <ele>197.69</ele>
        <time>2021-07-23T19:23:19Z</time>
      </trkpt>
      <trkpt lat="49.16387" lon="5.37126">
        <ele>197.69</ele>
        <time>2021-07-23T19:23:20Z</time>
      </trkpt>
      <trkpt lat="49.16387" lon="5.37126">
        <ele>197.69</ele>
        <time>2021-07-23T19:23:21Z</time>
      </trkpt>
      <trkpt lat="49.16381" lon="5.37117">
        <ele>197.69</ele>
        <time>2021-07-23T19:23:22Z</time>
      </trkpt>
      <trkpt lat="49.1638" lon="5.37106">
        <ele>197.69</ele>
        <time>2021-07-23T19:23:23Z</time>
      </trkpt>
      <trkpt lat="49.16378" lon="5.37081">
        <ele>197.69</ele>
        <time>2021-07-23T19:23:24Z</time>
      </trkpt>
      <trkpt lat="49.16378" lon="5.37081">
        <ele>197.21</ele>
        <time>2021-07-23T19:23:25Z</time>
      </trkpt>
      <trkpt lat="49.16375" lon="5.37067">
        <ele>196.73</ele>
        <time>2021-07-23T19:23:26Z</time>
      </trkpt>
      <trkpt lat="49.16372" lon="5.37051">
        <ele>196.25</ele>
        <time>2021-07-23T19:23:27Z</time>
      </trkpt>
      <trkpt lat="49.16371" lon="5.37035">
        <ele>196.73</ele>
        <time>2021-07-23T19:23:28Z</time>
      </trkpt>
      <trkpt lat="49.16369" lon="5.368">
        <ele>196.73</ele>
        <time>2021-07-23T19:23:41Z</time>
      </trkpt>
      <trkpt lat="49.16373" lon="5.36782">
        <ele>196.73</ele>
        <time>2021-07-23T19:23:42Z</time>
      </trkpt>
      <trkpt lat="49.16378" lon="5.36751">
        <ele>197.21</ele>
        <time>2021-07-23T19:23:43Z</time>
      </trkpt>
      <trkpt lat="49.16395" lon="5.36669">
        <ele>197.69</ele>
        <time>2021-07-23T19:23:51Z</time>
      </trkpt>
      <trkpt lat="49.16404" lon="5.36657">
        <ele>197.21</ele>
        <time>2021-07-23T19:23:53Z</time>
      </trkpt>
      <trkpt lat="49.16406" lon="5.36649">
        <ele>197.21</ele>
        <time>2021-07-23T19:23:54Z</time>
      </trkpt>
      <trkpt lat="49.16413" lon="5.36617">
        <ele>198.17</ele>
        <time>2021-07-23T19:23:59Z</time>
      </trkpt>
      <trkpt lat="49.16414" lon="5.36614">
        <ele>198.17</ele>
        <time>2021-07-23T19:24:00Z</time>
      </trkpt>
      <trkpt lat="49.1641" lon="5.36605">
        <ele>198.65</ele>
        <time>2021-07-23T19:24:02Z</time>
      </trkpt>
      <trkpt lat="49.16405" lon="5.36588">
        <ele>198.65</ele>
        <time>2021-07-23T19:24:03Z</time>
      </trkpt>
      <trkpt lat="49.16406" lon="5.36579">
        <ele>198.65</ele>
        <time>2021-07-23T19:24:04Z</time>
      </trkpt>
      <trkpt lat="49.16423" lon="5.36473">
        <ele>201.05</ele>
        <time>2021-07-23T19:24:12Z</time>
      </trkpt>
      <trkpt lat="49.16451" lon="5.36393">
        <ele>203.46</ele>
        <time>2021-07-23T19:24:20Z</time>
      </trkpt>
      <trkpt lat="49.16499" lon="5.36265">
        <ele>203.46</ele>
        <time>2021-07-23T19:24:31Z</time>
      </trkpt>
      <trkpt lat="49.16568" lon="5.36077">
        <ele>201.05</ele>
        <time>2021-07-23T19:24:45Z</time>
      </trkpt>
      <trkpt lat="49.16669" lon="5.35804">
        <ele>195.28</ele>
        <time>2021-07-23T19:25:01Z</time>
      </trkpt>
      <trkpt lat="49.16767" lon="5.35535">
        <ele>193.84</ele>
        <time>2021-07-23T19:25:18Z</time>
      </trkpt>
      <trkpt lat="49.16838" lon="5.35378">
        <ele>192.88</ele>
        <time>2021-07-23T19:25:31Z</time>
      </trkpt>
      <trkpt lat="49.16961" lon="5.35235">
        <ele>192.88</ele>
        <time>2021-07-23T19:25:45Z</time>
      </trkpt>
      <trkpt lat="49.16991" lon="5.35207">
        <ele>193.36</ele>
        <time>2021-07-23T19:25:50Z</time>
      </trkpt>
      <trkpt lat="49.16996" lon="5.35204">
        <ele>193.84</ele>
        <time>2021-07-23T19:25:52Z</time>
      </trkpt>
      <trkpt lat="49.17011" lon="5.35191">
        <ele>193.84</ele>
        <time>2021-07-23T19:25:53Z</time>
      </trkpt>
      <trkpt lat="49.1706" lon="5.3513">
        <ele>195.77</ele>
        <time>2021-07-23T19:26:01Z</time>
      </trkpt>
      <trkpt lat="49.17213" lon="5.34964">
        <ele>195.77</ele>
        <time>2021-07-23T19:26:16Z</time>
      </trkpt>
      <trkpt lat="49.17379" lon="5.34783">
        <ele>193.36</ele>
        <time>2021-07-23T19:26:32Z</time>
      </trkpt>
      <trkpt lat="49.17531" lon="5.34615">
        <ele>195.28</ele>
        <time>2021-07-23T19:26:47Z</time>
      </trkpt>
      <trkpt lat="49.1769" lon="5.3444">
        <ele>195.77</ele>
        <time>2021-07-23T19:27:00Z</time>
      </trkpt>
      <trkpt lat="49.17925" lon="5.34182">
        <ele>195.28</ele>
        <time>2021-07-23T19:27:15Z</time>
      </trkpt>
      <trkpt lat="49.1814" lon="5.33946">
        <ele>194.8</ele>
        <time>2021-07-23T19:27:30Z</time>
      </trkpt>
      <trkpt lat="49.18345" lon="5.33717">
        <ele>193.84</ele>
        <time>2021-07-23T19:27:44Z</time>
      </trkpt>
      <trkpt lat="49.18468" lon="5.3359">
        <ele>195.28</ele>
        <time>2021-07-23T19:27:53Z</time>
      </trkpt>
      <trkpt lat="49.18481" lon="5.33582">
        <ele>195.77</ele>
        <time>2021-07-23T19:27:54Z</time>
      </trkpt>
      <trkpt lat="49.18495" lon="5.33572">
        <ele>195.28</ele>
        <time>2021-07-23T19:27:55Z</time>
      </trkpt>
      <trkpt lat="49.18509" lon="5.33571">
        <ele>195.77</ele>
        <time>2021-07-23T19:27:56Z</time>
      </trkpt>
      <trkpt lat="49.18524" lon="5.33571">
        <ele>195.77</ele>
        <time>2021-07-23T19:27:57Z</time>
      </trkpt>
      <trkpt lat="49.18538" lon="5.33572">
        <ele>195.77</ele>
        <time>2021-07-23T19:27:58Z</time>
      </trkpt>
      <trkpt lat="49.1855" lon="5.33581">
        <ele>195.77</ele>
        <time>2021-07-23T19:27:59Z</time>
      </trkpt>
      <trkpt lat="49.18563" lon="5.3359">
        <ele>195.77</ele>
        <time>2021-07-23T19:28:00Z</time>
      </trkpt>
      <trkpt lat="49.18575" lon="5.33604">
        <ele>195.77</ele>
        <time>2021-07-23T19:28:01Z</time>
      </trkpt>
      <trkpt lat="49.18585" lon="5.33618">
        <ele>195.77</ele>
        <time>2021-07-23T19:28:02Z</time>
      </trkpt>
      <trkpt lat="49.18596" lon="5.33634">
        <ele>196.25</ele>
        <time>2021-07-23T19:28:03Z</time>
      </trkpt>
      <trkpt lat="49.18724" lon="5.33847">
        <ele>196.25</ele>
        <time>2021-07-23T19:28:14Z</time>
      </trkpt>
      <trkpt lat="49.18882" lon="5.3409">
        <ele>195.28</ele>
        <time>2021-07-23T19:28:26Z</time>
      </trkpt>
      <trkpt lat="49.18882" lon="5.3409">
        <ele>195.77</ele>
        <time>2021-07-23T19:28:27Z</time>
      </trkpt>
      <trkpt lat="49.18896" lon="5.34105">
        <ele>195.77</ele>
        <time>2021-07-23T19:28:28Z</time>
      </trkpt>
      <trkpt lat="49.18913" lon="5.34113">
        <ele>194.32</ele>
        <time>2021-07-23T19:28:29Z</time>
      </trkpt>
      <trkpt lat="49.1893" lon="5.34121">
        <ele>194.32</ele>
        <time>2021-07-23T19:28:30Z</time>
      </trkpt>
      <trkpt lat="49.18947" lon="5.34128">
        <ele>194.32</ele>
        <time>2021-07-23T19:28:31Z</time>
      </trkpt>
      <trkpt lat="49.18965" lon="5.34131">
        <ele>194.32</ele>
        <time>2021-07-23T19:28:32Z</time>
      </trkpt>
      <trkpt lat="49.19258" lon="5.34189">
        <ele>194.8</ele>
        <time>2021-07-23T19:28:48Z</time>
      </trkpt>
      <trkpt lat="49.19276" lon="5.34189">
        <ele>194.32</ele>
        <time>2021-07-23T19:28:49Z</time>
      </trkpt>
      <trkpt lat="49.19379" lon="5.34167">
        <ele>195.77</ele>
        <time>2021-07-23T19:28:55Z</time>
      </trkpt>
      <trkpt lat="49.19396" lon="5.34168">
        <ele>196.73</ele>
        <time>2021-07-23T19:28:56Z</time>
      </trkpt>
      <trkpt lat="49.19412" lon="5.34172">
        <ele>196.73</ele>
        <time>2021-07-23T19:28:57Z</time>
      </trkpt>
      <trkpt lat="49.19429" lon="5.34177">
        <ele>196.25</ele>
        <time>2021-07-23T19:28:58Z</time>
      </trkpt>
      <trkpt lat="49.19444" lon="5.34186">
        <ele>196.25</ele>
        <time>2021-07-23T19:28:59Z</time>
      </trkpt>
      <trkpt lat="49.19459" lon="5.34198">
        <ele>197.21</ele>
        <time>2021-07-23T19:29:00Z</time>
      </trkpt>
      <trkpt lat="49.19474" lon="5.3421">
        <ele>197.69</ele>
        <time>2021-07-23T19:29:01Z</time>
      </trkpt>
      <trkpt lat="49.19487" lon="5.34222">
        <ele>199.61</ele>
        <time>2021-07-23T19:29:02Z</time>
      </trkpt>
      <trkpt lat="49.19684" lon="5.34474">
        <ele>203.46</ele>
        <time>2021-07-23T19:29:16Z</time>
      </trkpt>
      <trkpt lat="49.1979" lon="5.34706">
        <ele>205.38</ele>
        <time>2021-07-23T19:29:25Z</time>
      </trkpt>
      <trkpt lat="49.1979" lon="5.34706">
        <ele>205.38</ele>
        <time>2021-07-23T19:29:26Z</time>
      </trkpt>
      <trkpt lat="49.19801" lon="5.34724">
        <ele>206.34</ele>
        <time>2021-07-23T19:29:27Z</time>
      </trkpt>
      <trkpt lat="49.19813" lon="5.34742">
        <ele>206.34</ele>
        <time>2021-07-23T19:29:28Z</time>
      </trkpt>
      <trkpt lat="49.19827" lon="5.34757">
        <ele>206.82</ele>
        <time>2021-07-23T19:29:29Z</time>
      </trkpt>
      <trkpt lat="49.19841" lon="5.34772">
        <ele>207.3</ele>
        <time>2021-07-23T19:29:30Z</time>
      </trkpt>
      <trkpt lat="49.20015" lon="5.34975">
        <ele>217.4</ele>
        <time>2021-07-23T19:29:42Z</time>
      </trkpt>
      <trkpt lat="49.2019" lon="5.35182">
        <ele>212.11</ele>
        <time>2021-07-23T19:29:53Z</time>
      </trkpt>
      <trkpt lat="49.20291" lon="5.35311">
        <ele>206.82</ele>
        <time>2021-07-23T19:30:02Z</time>
      </trkpt>
      <trkpt lat="49.2038" lon="5.35472">
        <ele>202.01</ele>
        <time>2021-07-23T19:30:12Z</time>
      </trkpt>
      <trkpt lat="49.20435" lon="5.35578">
        <ele>201.05</ele>
        <time>2021-07-23T19:30:22Z</time>
      </trkpt>
    </trkseg>
  </trk>
</gpx>